Time;durP1;ratioP1;P1;durP2;ratioP2;P2;SDS_P1;SDS_P2;PMS_P1;PMS_P2;Temp;Humidity;BMP_temperature;BMP_pressure;BME280_temperature;BME280_humidity;BME280_pressure;Samples;Min_cycle;Max_cycle;Signal;HPM_P1;HPM_P2
2022/06/27 00:01:32;;;;;;;19.52;11.20;;;15.50;86.60;;;;;;5018935;28;20018;-70
2022/06/27 00:03:59;;;;;;;20.05;10.55;;;15.50;86.50;;;;;;5022174;28;20072;-66
2022/06/27 00:06:26;;;;;;;19.27;10.82;;;15.50;86.60;;;;;;5030666;28;20128;-66
2022/06/27 00:08:53;;;;;;;20.90;10.75;;;15.50;86.50;;;;;;5023832;28;20090;-67
2022/06/27 00:11:20;;;;;;;24.85;12.30;;;15.40;86.40;;;;;;5020803;28;20342;-67
2022/06/27 00:13:47;;;;;;;33.78;11.98;;;15.40;86.50;;;;;;5025750;28;20033;-66
2022/06/27 00:16:13;;;;;;;17.23;10.82;;;15.40;86.60;;;;;;5030384;28;20101;-67
2022/06/27 00:18:40;;;;;;;23.67;11.80;;;15.40;86.40;;;;;;5023941;28;20092;-68
2022/06/27 00:21:07;;;;;;;27.63;13.73;;;15.40;86.20;;;;;;5027314;28;20017;-66
2022/06/27 00:23:33;;;;;;;32.70;12.23;;;15.40;86.00;;;;;;5026141;28;20038;-69
2022/06/27 00:26:00;;;;;;;26.45;12.43;;;15.30;85.90;;;;;;5029092;28;20112;-69
2022/06/27 00:28:26;;;;;;;21.90;11.25;;;15.30;85.80;;;;;;5028669;28;20076;-70
2022/06/27 00:30:53;;;;;;;26.42;12.05;;;15.30;85.60;;;;;;5030718;28;20025;-68
2022/06/27 00:33:19;;;;;;;31.25;13.98;;;15.30;85.30;;;;;;5020943;28;20484;-66
2022/06/27 00:35:46;;;;;;;16.60;11.35;;;15.30;85.10;;;;;;5034349;28;20021;-69
2022/06/27 00:38:13;;;;;;;22.50;12.40;;;15.20;84.70;;;;;;5023240;28;20039;-67
2022/06/27 00:40:39;;;;;;;22.52;11.90;;;15.20;84.60;;;;;;5028810;28;20022;-69
2022/06/27 00:43:06;;;;;;;31.13;12.50;;;15.20;84.40;;;;;;5024252;28;20415;-67
2022/06/27 00:45:32;;;;;;;26.75;11.75;;;15.20;84.60;;;;;;5034114;28;20024;-71
2022/06/27 00:47:59;;;;;;;18.35;10.32;;;15.10;84.50;;;;;;5026657;28;20474;-66
2022/06/27 00:50:25;;;;;;;18.70;11.45;;;15.10;84.40;;;;;;5030560;28;20040;-67
2022/06/27 00:52:52;;;;;;;21.80;11.20;;;15.10;84.20;;;;;;5034714;28;20061;-68
2022/06/27 00:55:19;;;;;;;16.70;8.57;;;15.10;84.00;;;;;;5023063;28;20475;-67
2022/06/27 00:57:45;;;;;;;14.10;9.27;;;15.10;83.60;;;;;;5025456;28;20113;-69
2022/06/27 01:00:13;;;;;;;12.73;8.25;;;15.10;83.20;;;;;;5031410;28;20024;-67
2022/06/27 01:02:40;;;;;;;13.98;8.52;;;15.00;82.70;;;;;;5023528;28;20037;-66
2022/06/27 01:05:07;;;;;;;16.75;8.73;;;15.00;82.50;;;;;;5024024;28;20566;-67
2022/06/27 01:07:35;;;;;;;12.18;8.82;;;15.00;82.30;;;;;;5021051;28;20511;-71
2022/06/27 01:10:02;;;;;;;14.38;8.43;;;15.00;82.20;;;;;;5028445;28;20072;-66
2022/06/27 01:12:29;;;;;;;14.95;9.35;;;15.00;82.10;;;;;;5028364;28;20053;-70
2022/06/27 01:14:56;;;;;;;12.25;9.57;;;15.00;82.00;;;;;;5029442;28;20063;-70
2022/06/27 01:17:24;;;;;;;16.23;8.85;;;15.00;81.90;;;;;;5024536;28;20034;-70
2022/06/27 01:19:51;;;;;;;16.65;10.15;;;15.00;81.80;;;;;;5023418;28;20643;-71
2022/06/27 01:22:19;;;;;;;14.75;8.63;;;15.00;81.80;;;;;;5025027;28;20018;-71
2022/06/27 01:24:45;;;;;;;12.27;8.38;;;15.00;81.80;;;;;;5024301;28;20022;-67
2022/06/27 01:27:12;;;;;;;14.40;9.75;;;14.90;81.70;;;;;;5026756;28;20033;-67
2022/06/27 01:29:38;;;;;;;21.42;9.30;;;14.90;81.60;;;;;;5026572;28;20018;-68
2022/06/27 01:32:05;;;;;;;11.75;9.45;;;14.90;81.50;;;;;;5024548;28;20116;-67
2022/06/27 01:34:32;;;;;;;15.00;9.32;;;14.90;81.30;;;;;;5019890;28;20038;-67
2022/06/27 01:36:58;;;;;;;14.00;8.88;;;14.90;81.20;;;;;;5028541;28;20103;-69
2022/06/27 01:39:26;;;;;;;16.05;8.48;;;14.90;81.10;;;;;;5028391;28;20017;-67
2022/06/27 01:42:02;;;;;;;22.67;8.60;;;14.80;81.00;;;;;;5023102;28;20105;-69
2022/06/27 01:44:30;;;;;;;12.32;7.88;;;14.80;80.90;;;;;;5025296;28;20022;-67
2022/06/27 01:47:00;;;;;;;11.70;7.90;;;14.80;80.80;;;;;;5022462;28;20049;-69
2022/06/27 01:49:28;;;;;;;13.25;7.45;;;14.80;80.70;;;;;;5030885;28;20472;-68
2022/06/27 01:51:56;;;;;;;15.68;7.10;;;14.70;80.60;;;;;;5022454;28;20060;-68
2022/06/27 01:54:23;;;;;;;11.38;6.30;;;14.70;81.10;;;;;;5026455;28;20484;-66
2022/06/27 01:56:54;;;;;;;10.40;6.75;;;14.70;81.70;;;;;;5020126;28;20026;-67
2022/06/27 01:59:23;;;;;;;13.73;8.27;;;14.70;81.90;;;;;;5032301;28;20025;-66
2022/06/27 02:01:50;;;;;;;12.63;7.13;;;14.70;82.10;;;;;;5023209;28;20022;-66
2022/06/27 02:04:17;;;;;;;18.88;7.45;;;14.70;81.90;;;;;;5019486;28;20026;-66
2022/06/27 02:06:45;;;;;;;10.57;6.35;;;14.70;81.70;;;;;;5025085;28;20033;-70
2022/06/27 02:09:14;;;;;;;6.50;5.45;;;14.70;81.30;;;;;;5023294;28;20783;-67
2022/06/27 02:11:43;;;;;;;14.27;6.28;;;14.70;80.90;;;;;;5026982;28;20033;-65
2022/06/27 02:14:09;;;;;;;9.80;5.30;;;14.70;80.60;;;;;;5025429;28;20113;-65
2022/06/27 02:16:38;;;;;;;8.30;5.43;;;14.60;80.40;;;;;;5023905;28;20053;-65
2022/06/27 02:19:05;;;;;;;8.02;4.68;;;14.60;80.20;;;;;;5028999;28;20021;-67
2022/06/27 02:21:32;;;;;;;5.93;3.70;;;14.60;79.80;;;;;;5026624;28;20488;-65
2022/06/27 02:23:58;;;;;;;4.80;4.07;;;14.50;79.40;;;;;;5026504;28;20026;-68
2022/06/27 02:26:28;;;;;;;7.00;3.33;;;14.50;79.10;;;;;;5027235;28;20526;-66
2022/06/27 02:28:56;;;;;;;6.13;3.13;;;14.50;79.00;;;;;;5020488;28;20021;-68
2022/06/27 02:31:23;;;;;;;4.05;3.50;;;14.50;79.00;;;;;;5022069;28;20716;-66
2022/06/27 02:33:51;;;;;;;7.57;3.53;;;14.40;78.70;;;;;;5020662;28;20064;-68
2022/06/27 02:36:32;;;;;;;4.60;2.50;;;14.40;78.60;;;;;;5023457;28;20088;-66
2022/06/27 02:39:00;;;;;;;4.13;2.60;;;14.40;78.60;;;;;;5021728;28;20503;-67
2022/06/27 02:41:32;;;;;;;5.10;2.88;;;14.40;78.30;;;;;;5025374;28;20384;-67
2022/06/27 02:44:06;;;;;;;8.48;2.65;;;14.40;78.00;;;;;;5025494;28;20029;-67
2022/06/27 02:46:33;;;;;;;9.50;3.70;;;14.40;77.80;;;;;;5018356;28;20033;-66
2022/06/27 02:49:01;;;;;;;3.85;2.50;;;14.40;77.40;;;;;;5028643;28;20077;-66
2022/06/27 02:51:52;;;;;;;3.83;1.92;;;14.30;77.70;;;;;;5024977;28;20427;-67
2022/06/27 02:54:31;;;;;;;4.40;2.63;;;14.40;77.50;;;;;;5034389;28;20480;-66
2022/06/27 02:57:04;;;;;;;3.05;1.90;;;14.30;76.80;;;;;;5025613;28;20396;-66
2022/06/27 02:59:38;;;;;;;2.92;1.80;;;14.30;76.80;;;;;;5037909;28;20025;-67
2022/06/27 03:02:09;;;;;;;5.47;2.20;;;14.30;76.60;;;;;;5030340;28;20797;-65
2022/06/27 03:04:37;;;;;;;7.43;1.75;;;14.30;76.40;;;;;;5028926;28;20041;-66
2022/06/27 03:07:04;;;;;;;2.30;1.33;;;14.30;76.00;;;;;;5030602;28;20087;-66
2022/06/27 03:09:30;;;;;;;8.48;2.10;;;14.20;75.70;;;;;;5024485;28;20092;-66
2022/06/27 03:11:57;;;;;;;8.23;2.03;;;14.20;75.80;;;;;;5030218;28;20503;-68
2022/06/27 03:14:23;;;;;;;7.15;2.30;;;14.20;75.90;;;;;;5021417;28;20096;-65
2022/06/27 03:16:50;;;;;;;23.23;13.00;;;14.20;76.00;;;;;;5026515;28;20041;-68
2022/06/27 03:19:17;;;;;;;29.40;15.13;;;14.20;77.10;;;;;;5034473;28;20013;-68
2022/06/27 03:21:43;;;;;;;21.30;8.15;;;14.20;77.80;;;;;;5027911;28;20029;-70
2022/06/27 03:24:10;;;;;;;6.95;4.03;;;14.20;78.00;;;;;;5023007;28;20025;-68
2022/06/27 03:26:37;;;;;;;7.68;2.70;;;14.20;77.40;;;;;;5026865;28;20197;-68
2022/06/27 03:29:03;;;;;;;2.80;2.10;;;14.10;76.60;;;;;;5028556;28;20095;-70
2022/06/27 03:31:30;;;;;;;7.25;1.98;;;14.10;76.10;;;;;;5025974;28;20512;-68
2022/06/27 03:33:57;;;;;;;6.10;2.13;;;14.10;75.90;;;;;;5027379;28;20017;-69
2022/06/27 03:36:24;;;;;;;2.15;1.52;;;14.10;75.70;;;;;;5024123;28;20022;-68
2022/06/27 03:38:50;;;;;;;6.20;3.38;;;14.00;75.60;;;;;;5029145;28;20025;-66
2022/06/27 03:41:17;;;;;;;7.53;2.45;;;14.00;75.50;;;;;;5030066;28;20033;-67
2022/06/27 03:43:44;;;;;;;4.30;2.50;;;14.00;75.60;;;;;;5030238;28;20029;-68
2022/06/27 03:46:10;;;;;;;5.85;3.05;;;14.00;75.90;;;;;;5027599;28;20483;-71
2022/06/27 03:51:21;;;;;;;9.38;3.67;;;14.00;76.00;;;;;;5030798;28;20032;-69
2022/06/27 03:53:48;;;;;;;7.97;3.22;;;14.10;75.00;;;;;;5027466;28;20013;-70
2022/06/27 03:56:14;;;;;;;14.02;9.25;;;14.10;75.50;;;;;;5030530;28;20057;-70
2022/06/27 03:58:41;;;;;;;398.60;314.42;;;14.00;76.50;;;;;;5026108;28;20025;-67
2022/06/27 04:01:08;;;;;;;240.75;174.30;;;14.10;76.10;;;;;;5022652;28;20493;-70
2022/06/27 04:03:35;;;;;;;134.75;95.05;;;14.00;76.10;;;;;;5031444;28;20104;-67
2022/06/27 04:06:01;;;;;;;76.22;50.72;;;14.00;76.30;;;;;;5026886;28;20090;-69
2022/06/27 06:19:14;;;;;;;;;;;13.70;83.60;;;;;;5070646;27;20388;-73
2022/06/27 06:22:20;;;;;;;11.70;4.88;;;13.90;84.10;;;;;;5046720;28;19909;-72
2022/06/27 06:25:27;;;;;;;7.10;3.83;;;13.90;83.90;;;;;;5043760;28;20027;-73
2022/06/27 06:28:33;;;;;;;10.45;4.78;;;13.90;83.50;;;;;;5046018;28;20506;-74
2022/06/27 06:31:01;;;;;;;24.88;5.53;;;14.00;83.30;;;;;;5046467;28;20029;-74
2022/06/27 06:33:28;;;;;;;24.13;5.22;;;14.00;83.10;;;;;;5045557;28;20100;-73
2022/06/27 06:36:35;;;;;;;14.43;5.43;;;14.00;83.10;;;;;;5046601;28;20202;-73
2022/06/27 06:39:41;;;;;;;12.77;5.28;;;14.10;82.90;;;;;;5045910;28;20395;-75
2022/06/27 06:42:09;;;;;;;18.92;6.47;;;14.10;82.60;;;;;;5046369;28;20100;-69
2022/06/27 06:44:35;;;;;;;9.05;4.55;;;14.00;82.40;;;;;;5051633;28;20040;-71
2022/06/27 06:47:02;;;;;;;14.30;4.88;;;14.10;82.60;;;;;;5047318;28;20025;-73
2022/06/27 06:49:30;;;;;;;10.82;4.57;;;14.10;82.90;;;;;;5051095;28;20017;-69
2022/06/27 06:52:38;;;;;;;13.10;5.50;;;14.10;82.80;;;;;;5045216;28;20020;-74
2022/06/27 06:55:06;;;;;;;13.95;4.88;;;14.10;82.70;;;;;;5045889;28;20033;-73
2022/06/27 06:58:12;;;;;;;13.73;5.80;;;14.20;82.70;;;;;;5046812;28;20028;-73
2022/06/27 07:01:20;;;;;;;6.60;4.65;;;14.10;82.80;;;;;;5048267;28;20024;-73
2022/06/27 07:03:49;;;;;;;11.68;5.50;;;14.10;82.90;;;;;;5045838;28;20112;-73
2022/06/27 07:06:17;;;;;;;16.58;6.13;;;14.20;83.40;;;;;;5046420;28;20028;-72
2022/06/27 07:08:46;;;;;;;14.15;7.75;;;14.20;84.10;;;;;;5046993;28;20036;-75
2022/06/27 07:11:12;;;;;;;28.92;8.57;;;14.20;84.00;;;;;;5046074;28;20038;-73
2022/06/27 07:13:39;;;;;;;21.02;8.15;;;14.20;84.00;;;;;;5048728;28;20059;-73
2022/06/27 07:16:07;;;;;;;21.15;9.23;;;14.20;84.10;;;;;;5046345;28;20466;-71
2022/06/27 07:18:35;;;;;;;23.30;8.88;;;14.30;84.20;;;;;;5042223;28;20053;-75
2022/06/27 07:21:03;;;;;;;21.58;10.30;;;14.30;84.40;;;;;;5033182;28;20025;-73
2022/06/27 07:23:29;;;;;;;19.65;9.65;;;14.30;84.50;;;;;;5031871;28;20026;-74
2022/06/27 07:26:27;;;;;;;12.55;6.78;;;14.30;84.90;;;;;;5031017;28;20071;-76
2022/06/27 07:29:33;;;;;;;13.43;7.05;;;14.30;85.40;;;;;;5033381;28;20726;-71
2022/06/27 07:32:12;;;;;;;19.92;7.45;;;14.40;85.70;;;;;;5034103;28;20017;-72
2022/06/27 07:34:39;;;;;;;14.50;7.30;;;14.40;86.70;;;;;;5032934;28;20037;-71
2022/06/27 07:37:05;;;;;;;16.45;6.35;;;14.50;87.10;;;;;;5034079;28;20043;-69
2022/06/27 07:39:32;;;;;;;17.90;6.93;;;14.50;86.90;;;;;;5031887;28;20353;-71
2022/06/27 07:41:59;;;;;;;11.13;7.25;;;14.60;87.10;;;;;;5045667;28;20527;-73
2022/06/27 07:44:25;;;;;;;18.80;8.38;;;14.60;87.10;;;;;;5036151;28;20052;-72
2022/06/27 07:46:52;;;;;;;12.98;7.68;;;14.60;87.30;;;;;;5032866;28;20692;-73
2022/06/27 07:49:19;;;;;;;11.77;7.32;;;14.60;87.10;;;;;;5033595;28;20096;-73
2022/06/27 07:51:47;;;;;;;15.68;6.93;;;14.60;87.00;;;;;;5033557;28;20022;-73
2022/06/27 07:54:14;;;;;;;14.15;7.60;;;14.60;86.90;;;;;;5031918;28;20033;-72
2022/06/27 07:56:43;;;;;;;13.50;7.13;;;14.60;86.90;;;;;;5035108;28;20503;-72
2022/06/27 07:59:10;;;;;;;12.23;6.50;;;14.70;87.00;;;;;;5033128;28;20093;-73
2022/06/27 08:01:37;;;;;;;14.20;6.22;;;14.70;87.00;;;;;;5032800;28;20026;-73
2022/06/27 08:04:04;;;;;;;15.20;7.15;;;14.70;86.90;;;;;;5031023;28;20598;-73
2022/06/27 08:06:31;;;;;;;8.70;5.93;;;14.70;87.00;;;;;;5033077;28;20029;-69
2022/06/27 08:09:03;;;;;;;10.68;5.40;;;14.70;87.20;;;;;;5031250;28;20074;-72
2022/06/27 08:11:36;;;;;;;8.02;6.07;;;14.70;87.20;;;;;;5031085;28;20021;-73
2022/06/27 08:14:09;;;;;;;9.15;4.95;;;14.80;87.40;;;;;;5023762;28;20033;-73
2022/06/27 08:16:39;;;;;;;13.15;4.75;;;14.80;87.50;;;;;;5032176;28;20517;-75
2022/06/27 08:19:07;;;;;;;23.33;6.10;;;14.80;87.20;;;;;;5033084;28;20468;-69
2022/06/27 08:21:35;;;;;;;10.48;6.13;;;14.80;87.10;;;;;;5031286;28;20024;-76
2022/06/27 08:24:09;;;;;;;21.48;6.63;;;14.90;87.30;;;;;;5036331;28;20107;-74
2022/06/27 08:26:36;;;;;;;18.88;5.00;;;14.80;87.40;;;;;;5032082;28;20419;-74
2022/06/27 08:29:05;;;;;;;14.13;4.78;;;15.00;87.80;;;;;;5032674;28;20105;-75
2022/06/27 08:31:37;;;;;;;16.95;4.75;;;15.00;87.80;;;;;;5031145;28;20025;-75
2022/06/27 08:34:04;;;;;;;10.40;4.47;;;15.10;87.60;;;;;;5033284;28;20021;-71
2022/06/27 08:36:33;;;;;;;13.23;5.97;;;15.10;87.60;;;;;;5035125;28;20022;-69
2022/06/27 08:39:01;;;;;;;12.15;3.97;;;15.10;87.50;;;;;;5033566;28;20020;-73
2022/06/27 08:41:28;;;;;;;14.35;4.00;;;15.20;87.70;;;;;;5035626;28;20025;-70
2022/06/27 08:43:58;;;;;;;9.50;3.92;;;15.20;87.50;;;;;;5033171;28;20059;-73
2022/06/27 08:46:25;;;;;;;8.85;3.65;;;15.20;88.00;;;;;;5031880;28;20036;-69
2022/06/27 08:48:51;;;;;;;7.60;4.35;;;15.30;87.30;;;;;;5034481;28;20026;-68
2022/06/27 08:51:18;;;;;;;16.90;5.07;;;15.30;87.10;;;;;;5034621;28;20554;-69
2022/06/27 08:53:46;;;;;;;7.55;4.82;;;15.40;86.90;;;;;;5034994;28;20135;-69
2022/06/27 08:56:13;;;;;;;10.13;4.60;;;15.40;86.60;;;;;;5034356;28;20064;-70
2022/06/27 08:58:43;;;;;;;10.63;5.03;;;15.40;86.80;;;;;;5036158;28;20025;-72
2022/06/27 09:01:10;;;;;;;12.70;5.50;;;15.50;86.00;;;;;;5028929;28;20025;-72
2022/06/27 09:03:36;;;;;;;13.90;5.15;;;15.50;85.60;;;;;;5033689;28;20028;-72
2022/06/27 09:06:06;;;;;;;9.80;5.00;;;15.50;85.20;;;;;;5030253;28;20028;-72
2022/06/27 09:08:36;;;;;;;7.07;4.72;;;15.60;85.10;;;;;;5033476;28;20064;-67
2022/06/27 09:11:04;;;;;;;6.60;4.13;;;15.60;85.00;;;;;;5034955;28;20519;-72
2022/06/27 09:13:32;;;;;;;21.17;4.90;;;15.70;84.90;;;;;;5030925;28;20025;-68
2022/06/27 09:16:04;;;;;;;8.50;5.03;;;15.80;84.70;;;;;;5032569;28;20047;-69
2022/06/27 09:18:36;;;;;;;8.48;4.60;;;15.80;84.40;;;;;;5033760;28;20053;-67
2022/06/27 09:21:12;;;;;;;6.93;5.40;;;15.90;84.00;;;;;;5033341;28;20017;-67
2022/06/27 09:24:00;;;;;;;13.43;5.63;;;15.90;83.70;;;;;;5033923;28;20424;-68
2022/06/27 09:26:49;;;;;;;10.35;4.90;;;16.00;82.60;;;;;;5029141;28;20033;-72
2022/06/27 09:29:17;;;;;;;11.18;4.75;;;16.00;82.30;;;;;;5029497;28;20117;-68
2022/06/27 09:31:50;;;;;;;13.52;5.13;;;16.10;81.30;;;;;;5029971;28;20444;-71
2022/06/27 09:34:24;;;;;;;10.18;4.93;;;16.20;81.30;;;;;;5033211;28;20021;-71
2022/06/27 09:36:57;;;;;;;10.35;4.30;;;16.20;80.80;;;;;;5029946;28;20050;-71
2022/06/27 09:39:34;;;;;;;6.10;3.88;;;16.30;80.20;;;;;;5033259;28;20503;-71
2022/06/27 09:42:02;;;;;;;7.95;4.18;;;16.30;79.20;;;;;;5032654;28;20049;-69
2022/06/27 09:44:39;;;;;;;7.50;4.78;;;16.40;79.10;;;;;;5030971;28;20029;-69
2022/06/27 09:47:19;;;;;;;11.02;4.95;;;16.50;79.30;;;;;;5028858;28;20044;-68
2022/06/27 09:49:52;;;;;;;9.82;3.83;;;16.50;78.90;;;;;;5027623;28;20022;-69
2022/06/27 09:52:26;;;;;;;10.05;4.68;;;16.60;78.10;;;;;;5031073;28;20105;-71
2022/06/27 09:54:54;;;;;;;7.38;4.13;;;16.70;77.70;;;;;;5031439;28;20025;-68
2022/06/27 09:57:22;;;;;;;12.00;4.70;;;16.80;76.60;;;;;;5028500;28;20021;-69
2022/06/27 09:59:50;;;;;;;9.82;3.70;;;16.80;75.90;;;;;;5030205;28;20144;-71
2022/06/27 10:02:19;;;;;;;5.10;3.00;;;16.90;75.00;;;;;;5032792;28;20140;-72
2022/06/27 10:04:51;;;;;;;13.00;4.25;;;17.00;73.60;;;;;;5029057;28;20056;-73
2022/06/27 10:07:19;;;;;;;11.48;3.67;;;17.10;73.30;;;;;;5030074;28;20619;-73
2022/06/27 10:09:51;;;;;;;3.25;2.88;;;17.10;73.00;;;;;;5030922;28;20100;-69
2022/06/27 10:12:23;;;;;;;6.22;2.70;;;17.10;72.20;;;;;;5035339;28;20021;-70
2022/06/27 10:15:14;;;;;;;7.40;3.53;;;17.20;71.80;;;;;;5030771;28;20026;-70
2022/06/27 10:17:49;;;;;;;6.40;2.95;;;17.30;71.80;;;;;;5032562;28;20595;-71
2022/06/27 10:20:20;;;;;;;4.13;2.13;;;17.30;70.80;;;;;;5030885;28;22414;-71
2022/06/27 10:23:04;;;;;;;13.75;4.47;;;17.40;70.80;;;;;;5034070;28;20377;-67
2022/06/27 10:25:31;;;;;;;11.82;3.92;;;17.40;69.50;;;;;;5034400;28;20697;-71
2022/06/27 10:28:09;;;;;;;11.38;4.13;;;17.50;69.10;;;;;;5031187;28;20033;-67
2022/06/27 10:30:58;;;;;;;8.55;4.15;;;17.60;69.80;;;;;;5029669;28;20033;-71
2022/06/27 10:33:25;;;;;;;5.32;4.15;;;17.60;68.70;;;;;;5026990;28;20021;-69
2022/06/27 10:36:10;;;;;;;4.15;3.50;;;17.70;68.10;;;;;;5025889;28;20431;-71
2022/06/27 10:38:39;;;;;;;6.70;4.00;;;17.70;66.30;;;;;;5031297;28;20373;-71
2022/06/27 10:41:10;;;;;;;11.40;3.47;;;17.80;66.90;;;;;;5031497;28;20525;-72
2022/06/27 10:43:36;;;;;;;11.82;3.80;;;17.90;67.30;;;;;;5032822;28;20052;-70
2022/06/27 10:46:13;;;;;;;8.48;3.35;;;18.00;67.30;;;;;;5030667;28;20064;-71
2022/06/27 10:48:48;;;;;;;9.63;3.50;;;18.10;66.40;;;;;;5034329;28;20041;-73
2022/06/27 10:51:27;;;;;;;5.28;3.22;;;18.10;65.80;;;;;;5035079;28;20025;-71
2022/06/27 10:54:06;;;;;;;10.80;3.80;;;18.20;65.00;;;;;;5032824;28;20025;-71
2022/06/27 10:56:37;;;;;;;5.72;3.92;;;18.20;65.40;;;;;;5034621;28;20030;-71
2022/06/27 10:59:05;;;;;;;7.22;4.43;;;18.30;65.00;;;;;;5038782;28;20567;-70
2022/06/27 11:01:33;;;;;;;7.13;4.15;;;18.40;65.30;;;;;;5035453;28;20021;-71
2022/06/27 11:04:00;;;;;;;12.35;3.92;;;18.40;64.90;;;;;;5035176;28;20030;-71
2022/06/27 11:06:27;;;;;;;10.75;3.95;;;18.50;65.10;;;;;;5035579;28;20017;-72
2022/06/27 11:08:54;;;;;;;15.27;4.50;;;18.60;65.30;;;;;;5041295;28;20021;-71
2022/06/27 11:11:30;;;;;;;6.78;3.60;;;18.70;65.20;;;;;;5033654;28;20057;-70
2022/06/27 11:13:58;;;;;;;10.00;3.70;;;18.70;64.70;;;;;;5041777;28;20029;-71
2022/06/27 11:16:33;;;;;;;18.08;4.95;;;18.80;63.80;;;;;;5031428;28;20017;-68
2022/06/27 11:20:04;;;;;;;7.03;3.92;;;18.90;64.40;;;;;;5036483;28;20087;-70
2022/06/27 11:21:51;;;;;;;18.30;4.35;;;19.00;64.90;;;;;;5036082;28;20393;-70
2022/06/27 11:24:18;;;;;;;9.77;4.45;;;19.10;64.10;;;;;;5035095;28;20025;-74
2022/06/27 11:26:49;;;;;;;7.93;3.58;;;19.10;62.90;;;;;;5037703;28;20125;-70
2022/06/27 11:32:10;;;;;;;5.82;4.05;;;19.30;62.50;;;;;;5036091;28;20033;-69
2022/06/27 11:34:48;;;;;;;9.45;4.60;;;19.40;62.90;;;;;;5039413;28;20044;-74
2022/06/27 11:37:20;;;;;;;10.43;5.20;;;19.50;62.90;;;;;;5033872;28;20456;-70
2022/06/27 11:40:03;;;;;;;8.93;4.07;;;19.60;61.80;;;;;;5034100;28;20026;-71
2022/06/27 11:42:34;;;;;;;11.43;4.07;;;19.70;62.70;;;;;;5036959;28;20171;-70
2022/06/27 11:45:06;;;;;;;11.85;4.05;;;19.70;61.20;;;;;;5032668;28;20037;-72
2022/06/27 11:47:39;;;;;;;11.20;4.45;;;19.80;60.90;;;;;;5034405;28;20387;-71
2022/06/27 11:50:11;;;;;;;12.02;5.28;;;19.90;60.80;;;;;;5036835;28;20366;-70
2022/06/27 11:52:43;;;;;;;7.30;3.72;;;19.90;59.80;;;;;;5038455;28;20017;-68
2022/06/27 11:55:19;;;;;;;8.48;4.15;;;20.00;59.90;;;;;;5032601;28;20029;-72
2022/06/27 11:57:54;;;;;;;9.85;4.95;;;20.10;60.40;;;;;;5032823;28;20100;-71
2022/06/27 12:00:29;;;;;;;12.05;4.47;;;20.10;60.00;;;;;;5039724;28;20381;-69
2022/06/27 12:03:09;;;;;;;7.20;3.92;;;20.20;59.50;;;;;;5036565;28;20021;-71
2022/06/27 12:05:42;;;;;;;11.02;4.75;;;20.20;58.80;;;;;;5036680;28;20068;-71
2022/06/27 14:43:12;;;;;;;14.50;8.75;;;20.50;54.60;;;;;;6181494;22;2803641;-73
2022/06/27 14:45:38;;;;;;;15.27;9.23;;;20.70;53.30;;;;;;6278316;22;20037;-69
2022/06/27 14:48:05;;;;;;;15.50;9.13;;;20.70;52.30;;;;;;6277473;22;20027;-73
2022/06/27 14:50:32;;;;;;;14.98;9.77;;;20.80;52.30;;;;;;6279924;22;20003;-73
2022/06/27 14:53:01;;;;;;;20.27;11.32;;;20.80;52.20;;;;;;6279066;22;20003;-70
2022/06/27 14:55:27;;;;;;;14.35;10.05;;;20.80;51.70;;;;;;6280272;22;20057;-73
2022/06/27 14:57:54;;;;;;;16.67;10.30;;;20.80;52.00;;;;;;6278085;22;20489;-71
2022/06/27 15:00:20;;;;;;;19.38;9.88;;;20.80;52.10;;;;;;6278308;22;20415;-70
2022/06/27 15:02:48;;;;;;;16.67;10.57;;;20.80;52.20;;;;;;6250344;22;20003;-72
2022/06/27 15:05:19;;;;;;;18.45;9.77;;;20.80;52.30;;;;;;6252229;22;19999;-73
2022/06/27 15:07:46;;;;;;;16.58;9.23;;;20.70;51.60;;;;;;6278437;22;20692;-70
2022/06/27 15:10:13;;;;;;;14.00;7.97;;;20.70;51.50;;;;;;6278123;22;19999;-74
2022/06/27 15:12:39;;;;;;;13.75;7.60;;;20.60;50.60;;;;;;6278307;22;20010;-72
2022/06/27 15:15:07;;;;;;;14.73;6.70;;;20.60;50.80;;;;;;6277469;22;19984;-69
2022/06/27 15:17:33;;;;;;;19.23;7.05;;;20.60;50.60;;;;;;6278549;22;20007;-69
2022/06/27 15:20:00;;;;;;;14.65;6.70;;;20.50;50.30;;;;;;6276317;22;20003;-73
2022/06/27 15:22:26;;;;;;;14.82;6.22;;;20.50;50.10;;;;;;6279073;22;20494;-74
2022/06/27 15:24:53;;;;;;;13.93;6.07;;;20.50;50.00;;;;;;6275780;22;20354;-74
2022/06/27 15:27:21;;;;;;;13.32;6.82;;;20.40;49.90;;;;;;6280527;22;20471;-73
2022/06/27 15:29:48;;;;;;;19.73;7.18;;;20.40;49.60;;;;;;6280840;22;19995;-69
2022/06/27 15:32:15;;;;;;;18.02;7.20;;;20.40;49.40;;;;;;6280540;22;20014;-70
2022/06/27 15:34:42;;;;;;;11.02;7.45;;;20.30;49.60;;;;;;6281636;22;20030;-69
2022/06/27 15:37:08;;;;;;;15.80;6.72;;;20.30;49.90;;;;;;6279746;22;20003;-74
2022/06/27 15:39:35;;;;;;;14.75;7.57;;;20.20;50.00;;;;;;6281311;22;20010;-72
2022/06/27 15:42:05;;;;;;;10.52;6.05;;;20.20;50.00;;;;;;6278135;22;20012;-72
2022/06/27 15:44:33;;;;;;;11.13;7.20;;;20.20;50.20;;;;;;6274146;22;20000;-71
2022/06/27 15:47:00;;;;;;;12.48;6.82;;;20.10;50.10;;;;;;6273567;22;19995;-70
2022/06/27 15:49:26;;;;;;;15.10;7.85;;;20.10;50.20;;;;;;6274026;22;20454;-70
2022/06/27 15:51:53;;;;;;;10.25;6.60;;;20.00;50.10;;;;;;6274299;22;20007;-69
2022/06/27 15:54:19;;;;;;;20.52;8.05;;;20.00;50.10;;;;;;6272512;22;20118;-73
2022/06/27 15:56:46;;;;;;;17.25;7.65;;;20.00;50.40;;;;;;6273407;22;20003;-72
2022/06/27 15:59:12;;;;;;;19.42;7.85;;;19.90;50.30;;;;;;6272698;22;20307;-71
2022/06/27 16:01:39;;;;;;;20.42;7.35;;;19.90;50.80;;;;;;6272087;22;20361;-69
2022/06/27 16:04:05;;;;;;;14.48;7.55;;;19.90;51.30;;;;;;6270690;22;20462;-69
2022/06/27 16:06:32;;;;;;;16.67;9.02;;;19.80;52.00;;;;;;6272828;22;19996;-72
2022/06/27 16:08:58;;;;;;;19.33;9.68;;;19.80;52.80;;;;;;6272811;22;20000;-72
2022/06/27 16:11:24;;;;;;;13.88;8.05;;;19.70;52.50;;;;;;6272626;22;20427;-68
2022/06/27 16:13:51;;;;;;;21.83;7.18;;;19.70;52.60;;;;;;6273221;22;20006;-68
2022/06/27 16:16:17;;;;;;;21.35;8.48;;;19.60;53.10;;;;;;6271533;22;20026;-72
2022/06/27 16:18:44;;;;;;;17.80;9.48;;;19.60;52.90;;;;;;6273502;22;19999;-69
2022/06/27 16:21:12;;;;;;;14.93;8.43;;;19.60;52.90;;;;;;6272193;22;20000;-68
2022/06/27 16:23:38;;;;;;;12.30;8.05;;;19.50;52.70;;;;;;6273041;22;20004;-73
2022/06/27 16:26:07;;;;;;;16.08;8.63;;;19.50;52.70;;;;;;6271736;22;20457;-74
2022/06/27 16:28:33;;;;;;;18.58;8.40;;;19.40;53.30;;;;;;6272745;22;20017;-71
2022/06/27 16:33:45;;;;;;;15.13;8.07;;;19.40;53.50;;;;;;6271524;22;20051;-70
2022/06/27 16:36:12;;;;;;;11.07;7.93;;;19.30;53.80;;;;;;6271030;22;20010;-70
2022/06/27 16:38:39;;;;;;;16.02;8.13;;;19.30;53.90;;;;;;6270903;22;20000;-74
2022/06/27 16:41:05;;;;;;;13.30;8.13;;;19.20;53.70;;;;;;6271710;22;20010;-70
2022/06/27 16:43:32;;;;;;;24.23;7.10;;;19.20;53.80;;;;;;6270525;22;20442;-72
2022/06/27 16:45:59;;;;;;;23.73;6.88;;;19.20;54.10;;;;;;6271475;22;20623;-72
2022/06/27 16:48:27;;;;;;;15.10;7.68;;;19.20;54.50;;;;;;6271167;22;19999;-73
2022/06/27 16:51:00;;;;;;;20.98;6.50;;;19.10;54.60;;;;;;6271533;22;20414;-73
2022/06/27 16:53:39;;;;;;;14.90;7.30;;;19.10;54.90;;;;;;6271366;22;20006;-75
2022/06/27 16:56:08;;;;;;;18.55;7.25;;;19.00;55.20;;;;;;6270638;22;20000;-72
2022/06/27 16:58:35;;;;;;;15.25;7.05;;;19.00;55.90;;;;;;6272458;22;20011;-74
2022/06/27 17:01:01;;;;;;;10.95;7.32;;;18.90;56.60;;;;;;6271963;22;20000;-73
2022/06/27 17:03:29;;;;;;;14.68;7.60;;;19.00;56.80;;;;;;6271854;22;20423;-71
2022/06/27 17:05:55;;;;;;;43.60;31.23;;;18.90;56.50;;;;;;6272645;22;20002;-70
2022/06/27 17:08:22;;;;;;;40.88;28.33;;;18.90;56.80;;;;;;6270644;22;20078;-69
2022/06/27 17:10:48;;;;;;;35.35;23.20;;;18.90;56.90;;;;;;6271854;22;20008;-68
2022/06/27 17:13:15;;;;;;;27.35;18.20;;;18.80;57.10;;;;;;6269921;22;20039;-70
2022/06/27 17:15:44;;;;;;;23.38;15.77;;;18.80;57.30;;;;;;6270937;22;20003;-67
2022/06/27 17:18:10;;;;;;;22.98;14.05;;;18.80;57.20;;;;;;6270095;22;20015;-72
2022/06/27 17:20:37;;;;;;;21.98;12.52;;;18.80;57.80;;;;;;6271336;22;20027;-70
2022/06/27 17:23:05;;;;;;;20.73;12.60;;;18.80;57.80;;;;;;6271132;22;20049;-68
2022/06/27 17:25:32;;;;;;;17.02;13.07;;;18.70;57.90;;;;;;6270326;22;20501;-71
2022/06/27 17:27:59;;;;;;;18.85;12.40;;;18.70;58.00;;;;;;6271840;22;20006;-68
2022/06/27 17:30:25;;;;;;;20.00;12.38;;;18.70;58.20;;;;;;6269939;22;20428;-68
2022/06/27 17:32:52;;;;;;;26.83;12.48;;;18.70;58.40;;;;;;6271009;22;20043;-73
2022/06/27 17:35:19;;;;;;;23.20;11.98;;;18.60;58.50;;;;;;6270335;22;20019;-68
2022/06/27 17:37:45;;;;;;;19.65;12.35;;;18.60;58.50;;;;;;6271349;22;20051;-74
2022/06/27 17:40:13;;;;;;;28.42;13.93;;;18.50;58.60;;;;;;6270179;22;20324;-68
2022/06/27 17:42:39;;;;;;;22.50;15.43;;;18.50;58.90;;;;;;6270998;22;20515;-71
2022/06/27 17:45:08;;;;;;;48.50;26.65;;;18.60;59.30;;;;;;6271564;22;20470;-68
2022/06/27 17:47:34;;;;;;;36.80;26.27;;;18.50;59.70;;;;;;6269767;22;19999;-69